PWSweather.com
Personal Weather Stations
Station Observations
KKSTOPEK1
South Central , Topeka, KS 66611

South Central Topeka, KS 66611

Lat: 39.03, Lon: -95.71

Elevation: 945

Station Type: Davis Vantage Vue

http://tallgrasspixels.net/wx/wx.html

High Low Average
Temperature 67.1°F19.5°F 40.7°F4.8°F 53.4°F11.9°F
Dew Point 43.1°F6.2°F 36.0°F2.2°F 39.6°F4.2°F
Winds 7.0 mph SE11.3 mph SE Calm Calm 1.6 mph 2.6 mph
Wind Gusts 13.0 mph20.9 mph -- 3.2 mph5.1 mph
Humidity 92% 33% 64%
Pressure 30.17 in1021.70 in 30.03 in1016.90 in -
Precipitation 0.00 in0.00 in - -
Hour Temp Dew Point Humidity Winds Wind Gusts Pressure Precip Precip Rate Daily Precip Total
12:00 AM 48.1°F8.9°C 41.9°F5.5°C 79% Calm Calm -- 30.03 in1016.9 mb - 0.00 in0.0 mm 0.00 in0.0 mm
12:10 AM 47.4°F8.6°C 41.5°F5.3°C 80% Calm Calm -- 30.03 in1016.9 mb - 0.00 in0.0 mm 0.00 in0.0 mm
12:20 AM 46.8°F8.2°C 41.3°F5.2°C 81% Calm Calm -- 30.03 in1016.9 mb - 0.00 in0.0 mm 0.00 in0.0 mm
12:30 AM 45.9°F7.7°C 40.7°F4.8°C 82% Calm Calm -- 30.03 in1016.9 mb - 0.00 in0.0 mm 0.00 in0.0 mm
12:40 AM 45.3°F7.4°C 40.7°F4.8°C 84% Calm Calm -- 30.03 in1016.9 mb - 0.00 in0.0 mm 0.00 in0.0 mm
12:50 AM 44.5°F6.9°C 40.5°F4.7°C 86% Calm Calm -- 30.03 in1016.9 mb - 0.00 in0.0 mm 0.00 in0.0 mm
01:00 AM 44.3°F6.8°C 40.4°F4.7°C 86% Calm Calm -- 30.04 in1017.3 mb - 0.00 in0.0 mm 0.00 in0.0 mm
01:10 AM 43.7°F6.5°C 39.7°F4.3°C 86% Calm Calm -- 30.04 in1017.3 mb - 0.00 in0.0 mm 0.00 in0.0 mm
01:20 AM 43.4°F6.3°C 40.1°F4.5°C 88% Calm Calm -- 30.04 in1017.3 mb - 0.00 in0.0 mm 0.00 in0.0 mm
01:30 AM 43.5°F6.4°C 40.1°F4.5°C 88% Calm Calm -- 30.04 in1017.3 mb - 0.00 in0.0 mm 0.00 in0.0 mm
01:40 AM 43.2°F6.2°C 40.2°F4.6°C 89% Calm Calm -- 30.04 in1017.3 mb - 0.00 in0.0 mm 0.00 in0.0 mm
01:50 AM 43.2°F6.2°C 40.2°F4.6°C 89% Calm Calm -- 30.04 in1017.3 mb - 0.00 in0.0 mm 0.00 in0.0 mm
02:00 AM 43.0°F6.1°C 40.3°F4.6°C 90% Calm Calm -- 30.04 in1017.3 mb - 0.00 in0.0 mm 0.00 in0.0 mm
02:10 AM 43.5°F6.4°C 40.8°F4.9°C 90% 0.1 mph NNW0.2 kmh NNW 1.0 mph1.6 kmh 30.04 in1017.3 mb - 0.00 in0.0 mm 0.00 in0.0 mm
02:20 AM 44.8°F7.1°C 40.9°F4.9°C 86% Calm Calm -- 30.05 in1017.6 mb - 0.00 in0.0 mm 0.00 in0.0 mm
02:30 AM 45.4°F7.4°C 41.2°F5.1°C 85% Calm Calm -- 30.05 in1017.6 mb - 0.00 in0.0 mm 0.00 in0.0 mm
02:40 AM 45.3°F7.4°C 41.1°F5.1°C 85% Calm Calm -- 30.05 in1017.6 mb - 0.00 in0.0 mm 0.00 in0.0 mm
02:50 AM 45.5°F7.5°C 41.2°F5.1°C 85% 0.1 mph ESE0.2 kmh ESE 1.0 mph1.6 kmh 30.05 in1017.6 mb - 0.00 in0.0 mm 0.00 in0.0 mm
03:00 AM 45.6°F7.6°C 41.0°F5.0°C 84% Calm Calm -- 30.05 in1017.6 mb - 0.00 in0.0 mm 0.00 in0.0 mm
03:10 AM 45.7°F7.6°C 41.1°F5.1°C 84% 0.1 mph N0.2 kmh N 1.0 mph1.6 kmh 30.05 in1017.6 mb - 0.00 in0.0 mm 0.00 in0.0 mm
03:20 AM 45.3°F7.4°C 41.1°F5.1°C 85% Calm Calm -- 30.05 in1017.6 mb - 0.00 in0.0 mm 0.00 in0.0 mm
03:30 AM 44.6°F7.0°C 40.7°F4.8°C 86% Calm Calm -- 30.06 in1017.9 mb - 0.00 in0.0 mm 0.00 in0.0 mm
03:40 AM 44.1°F6.7°C 40.5°F4.7°C 87% Calm Calm -- 30.06 in1017.9 mb - 0.00 in0.0 mm 0.00 in0.0 mm
03:50 AM 43.7°F6.5°C 40.1°F4.5°C 87% Calm Calm -- 30.06 in1017.9 mb - 0.00 in0.0 mm 0.00 in0.0 mm
04:00 AM 43.4°F6.3°C 40.1°F4.5°C 88% Calm Calm -- 30.06 in1017.9 mb - 0.00 in0.0 mm 0.00 in0.0 mm
04:10 AM 43.0°F6.1°C 39.7°F4.3°C 88% Calm Calm -- 30.05 in1017.6 mb - 0.00 in0.0 mm 0.00 in0.0 mm
04:20 AM 44.2°F6.8°C 40.3°F4.6°C 86% 0.6 mph N1.0 kmh N 2.0 mph3.2 kmh 30.05 in1017.6 mb - 0.00 in0.0 mm 0.00 in0.0 mm
04:30 AM 45.0°F7.2°C 40.1°F4.5°C 83% 0.3 mph N0.5 kmh N 1.0 mph1.6 kmh 30.06 in1017.9 mb - 0.00 in0.0 mm 0.00 in0.0 mm
04:40 AM 45.3°F7.4°C 39.8°F4.3°C 81% Calm Calm -- 30.06 in1017.9 mb - 0.00 in0.0 mm 0.00 in0.0 mm
04:50 AM 44.9°F7.2°C 39.4°F4.1°C 81% Calm Calm 1.0 mph1.6 kmh 30.06 in1017.9 mb - 0.00 in0.0 mm 0.00 in0.0 mm
05:00 AM 44.8°F7.1°C 39.3°F4.1°C 81% Calm Calm -- 30.07 in1018.3 mb - 0.00 in0.0 mm 0.00 in0.0 mm
05:10 AM 44.5°F6.9°C 40.0°F4.4°C 84% Calm Calm -- 30.08 in1018.6 mb - 0.00 in0.0 mm 0.00 in0.0 mm
05:20 AM 43.9°F6.6°C 39.7°F4.3°C 85% Calm Calm -- 30.09 in1019.0 mb - 0.00 in0.0 mm 0.00 in0.0 mm
05:30 AM 43.2°F6.2°C 39.6°F4.2°C 87% Calm Calm 1.0 mph1.6 kmh 30.10 in1019.3 mb - 0.00 in0.0 mm 0.00 in0.0 mm
05:40 AM 42.5°F5.8°C 38.9°F3.8°C 87% Calm Calm -- 30.11 in1019.6 mb - 0.00 in0.0 mm 0.00 in0.0 mm
05:50 AM 42.0°F5.6°C 39.0°F3.9°C 89% Calm Calm -- 30.11 in1019.6 mb - 0.00 in0.0 mm 0.00 in0.0 mm
06:00 AM 41.6°F5.3°C 38.9°F3.8°C 90% Calm Calm -- 30.12 in1020.0 mb - 0.00 in0.0 mm 0.00 in0.0 mm
06:10 AM 41.3°F5.2°C 38.5°F3.6°C 90% Calm Calm -- 30.12 in1020.0 mb - 0.00 in0.0 mm 0.00 in0.0 mm
06:20 AM 40.9°F4.9°C 38.5°F3.6°C 91% Calm Calm -- 30.13 in1020.3 mb - 0.00 in0.0 mm 0.00 in0.0 mm
06:30 AM 40.7°F4.8°C 38.3°F3.5°C 91% Calm Calm -- 30.13 in1020.3 mb - 0.00 in0.0 mm 0.00 in0.0 mm
06:40 AM 40.8°F4.9°C 38.6°F3.7°C 92% Calm Calm -- 30.13 in1020.3 mb - 0.00 in0.0 mm 0.00 in0.0 mm
06:50 AM 40.8°F4.9°C 38.6°F3.7°C 92% Calm Calm -- 30.12 in1020.0 mb - 0.00 in0.0 mm 0.00 in0.0 mm
07:00 AM 41.0°F5.0°C 38.9°F3.8°C 92% Calm Calm -- 30.13 in1020.3 mb - 0.00 in0.0 mm 0.00 in0.0 mm
07:10 AM 41.2°F5.1°C 39.0°F3.9°C 92% Calm Calm -- 30.13 in1020.3 mb - 0.00 in0.0 mm 0.00 in0.0 mm
07:20 AM 41.9°F5.5°C 39.5°F4.2°C 91% Calm Calm -- 30.14 in1020.7 mb - 0.00 in0.0 mm 0.00 in0.0 mm
07:30 AM 42.3°F5.7°C 39.9°F4.4°C 91% Calm Calm -- 30.14 in1020.7 mb - 0.00 in0.0 mm 0.00 in0.0 mm
07:40 AM 42.7°F5.9°C 40.0°F4.4°C 90% 0.1 mph E0.2 kmh E 1.0 mph1.6 kmh 30.14 in1020.7 mb - 0.00 in0.0 mm 0.00 in0.0 mm
07:50 AM 43.7°F6.5°C 40.1°F4.5°C 87% Calm Calm -- 30.14 in1020.7 mb - 0.00 in0.0 mm 0.00 in0.0 mm
08:00 AM 44.6°F7.0°C 40.1°F4.5°C 84% 0.1 mph NE0.2 kmh NE -- 30.15 in1021.0 mb - 0.00 in0.0 mm 0.00 in0.0 mm
08:10 AM 45.7°F7.6°C 40.2°F4.6°C 81% 0.3 mph N0.5 kmh N -- 30.15 in1021.0 mb - 0.00 in0.0 mm 0.00 in0.0 mm
08:20 AM 46.5°F8.1°C 40.0°F4.4°C 78% 0.5 mph N0.8 kmh N 1.0 mph1.6 kmh 30.15 in1021.0 mb - 0.00 in0.0 mm 0.00 in0.0 mm
08:30 AM 47.1°F8.4°C 39.9°F4.4°C 76% 0.5 mph N0.8 kmh N 1.0 mph1.6 kmh 30.16 in1021.3 mb - 0.00 in0.0 mm 0.00 in0.0 mm
08:40 AM 47.9°F8.8°C 40.4°F4.7°C 75% 1.0 mph NE1.6 kmh NE 1.0 mph1.6 kmh 30.16 in1021.3 mb - 0.00 in0.0 mm 0.00 in0.0 mm
08:50 AM 48.9°F9.4°C 40.2°F4.6°C 72% 0.2 mph E0.3 kmh E 1.0 mph1.6 kmh 30.16 in1021.3 mb - 0.00 in0.0 mm 0.00 in0.0 mm
09:00 AM 49.6°F9.8°C 40.6°F4.8°C 71% 1.1 mph ESE1.8 kmh ESE 2.0 mph3.2 kmh 30.16 in1021.3 mb - 0.00 in0.0 mm 0.00 in0.0 mm
09:10 AM 50.0°F10.0°C 40.9°F4.9°C 71% 1.1 mph E1.8 kmh E 3.0 mph4.8 kmh 30.17 in1021.7 mb - 0.00 in0.0 mm 0.00 in0.0 mm
09:20 AM 50.5°F10.3°C 41.1°F5.1°C 70% 0.3 mph E0.5 kmh E 3.0 mph4.8 kmh 30.17 in1021.7 mb - 0.00 in0.0 mm 0.00 in0.0 mm
09:30 AM 51.4°F10.8°C 41.5°F5.3°C 69% 1.7 mph E2.7 kmh E 3.0 mph4.8 kmh 30.17 in1021.7 mb - 0.00 in0.0 mm 0.00 in0.0 mm
09:40 AM 52.0°F11.1°C 42.2°F5.7°C 69% 3.7 mph N6.0 kmh N 7.0 mph11.3 kmh 30.17 in1021.7 mb - 0.00 in0.0 mm 0.00 in0.0 mm
09:50 AM 52.9°F11.6°C 42.2°F5.7°C 67% 2.3 mph ESE3.7 kmh ESE 3.0 mph4.8 kmh 30.17 in1021.7 mb - 0.00 in0.0 mm 0.00 in0.0 mm
10:00 AM 54.2°F12.3°C 43.1°F6.2°C 66% 2.3 mph N3.7 kmh N 5.0 mph8.0 kmh 30.16 in1021.3 mb - 0.00 in0.0 mm 0.00 in0.0 mm
10:10 AM 54.7°F12.6°C 42.7°F5.9°C 64% 1.5 mph NE2.4 kmh NE 5.0 mph8.0 kmh 30.17 in1021.7 mb - 0.00 in0.0 mm 0.00 in0.0 mm
10:20 AM 55.4°F13.0°C 43.0°F6.1°C 63% 1.1 mph E1.8 kmh E 4.0 mph6.4 kmh 30.16 in1021.3 mb - 0.00 in0.0 mm 0.00 in0.0 mm
10:30 AM 56.7°F13.7°C 40.2°F4.6°C 54% 3.8 mph NE6.1 kmh NE 9.0 mph14.5 kmh 30.16 in1021.3 mb - 0.00 in0.0 mm 0.00 in0.0 mm
10:40 AM 56.7°F13.7°C 40.2°F4.6°C 54% 4.3 mph ENE6.9 kmh ENE 6.0 mph9.7 kmh 30.16 in1021.3 mb - 0.00 in0.0 mm 0.00 in0.0 mm
10:50 AM 57.5°F14.2°C 40.5°F4.7°C 53% 3.1 mph E5.0 kmh E 6.0 mph9.7 kmh 30.16 in1021.3 mb - 0.00 in0.0 mm 0.00 in0.0 mm
11:00 AM 57.5°F14.2°C 40.0°F4.4°C 52% 2.9 mph NE4.7 kmh NE 7.0 mph11.3 kmh 30.16 in1021.3 mb - 0.00 in0.0 mm 0.00 in0.0 mm
11:10 AM 58.1°F14.5°C 40.0°F4.4°C 51% 4.5 mph NE7.2 kmh NE 7.0 mph11.3 kmh 30.15 in1021.0 mb - 0.00 in0.0 mm 0.00 in0.0 mm
11:20 AM 58.7°F14.8°C 38.5°F3.6°C 47% 3.8 mph N6.1 kmh N 7.0 mph11.3 kmh 30.15 in1021.0 mb - 0.00 in0.0 mm 0.00 in0.0 mm
11:30 AM 59.0°F15.0°C 39.3°F4.1°C 48% 3.9 mph SE6.3 kmh SE 9.0 mph14.5 kmh 30.15 in1021.0 mb - 0.00 in0.0 mm 0.00 in0.0 mm
11:40 AM 59.6°F15.3°C 39.3°F4.1°C 47% 3.7 mph E6.0 kmh E 8.0 mph12.9 kmh 30.15 in1021.0 mb - 0.00 in0.0 mm 0.00 in0.0 mm
11:50 AM 59.1°F15.1°C 37.8°F3.2°C 45% 2.8 mph SE4.5 kmh SE 8.0 mph12.9 kmh 30.15 in1021.0 mb - 0.00 in0.0 mm 0.00 in0.0 mm
12:00 PM 58.7°F14.8°C 37.9°F3.3°C 46% 2.8 mph N4.5 kmh N 4.0 mph6.4 kmh 30.15 in1021.0 mb - 0.00 in0.0 mm 0.00 in0.0 mm
12:10 PM 58.5°F14.7°C 38.4°F3.6°C 47% 5.1 mph NE8.2 kmh NE 8.0 mph12.9 kmh 30.14 in1020.7 mb - 0.00 in0.0 mm 0.00 in0.0 mm
12:20 PM 59.3°F15.2°C 39.6°F4.2°C 48% 2.2 mph SE3.5 kmh SE 8.0 mph12.9 kmh 30.14 in1020.7 mb - 0.00 in0.0 mm 0.00 in0.0 mm
12:30 PM 59.9°F15.5°C 40.7°F4.8°C 49% 2.1 mph E3.4 kmh E 4.0 mph6.4 kmh 30.14 in1020.7 mb - 0.00 in0.0 mm 0.00 in0.0 mm
12:40 PM 59.8°F15.4°C 40.0°F4.4°C 48% 4.8 mph NNE7.7 kmh NNE 10.0 mph16.1 kmh 30.13 in1020.3 mb - 0.00 in0.0 mm 0.00 in0.0 mm
12:50 PM 59.4°F15.2°C 39.7°F4.3°C 48% 5.7 mph NE9.2 kmh NE 9.0 mph14.5 kmh 30.13 in1020.3 mb - 0.00 in0.0 mm 0.00 in0.0 mm
01:00 PM 60.3°F15.7°C 39.9°F4.4°C 47% 2.6 mph SE4.2 kmh SE 10.0 mph16.1 kmh 30.13 in1020.3 mb - 0.00 in0.0 mm 0.00 in0.0 mm
01:10 PM 60.8°F16.0°C 39.3°F4.1°C 45% 3.7 mph NE6.0 kmh NE 9.0 mph14.5 kmh 30.13 in1020.3 mb - 0.00 in0.0 mm 0.00 in0.0 mm
01:20 PM 62.0°F16.7°C 40.9°F4.9°C 46% 2.8 mph NE4.5 kmh NE 8.0 mph12.9 kmh 30.12 in1020.0 mb - 0.00 in0.0 mm 0.00 in0.0 mm
01:30 PM 62.3°F16.8°C 42.3°F5.7°C 48% 2.1 mph SE3.4 kmh SE 7.0 mph11.3 kmh 30.12 in1020.0 mb - 0.00 in0.0 mm 0.00 in0.0 mm
01:40 PM 63.2°F17.3°C 41.5°F5.3°C 45% 3.4 mph NNE5.5 kmh NNE 7.0 mph11.3 kmh 30.12 in1020.0 mb - 0.00 in0.0 mm 0.00 in0.0 mm
01:50 PM 63.4°F17.4°C 41.7°F5.4°C 45% 4.5 mph N7.2 kmh N 8.0 mph12.9 kmh 30.12 in1020.0 mb - 0.00 in0.0 mm 0.00 in0.0 mm
02:00 PM 63.3°F17.4°C 42.2°F5.7°C 46% 3.1 mph NE5.0 kmh NE 5.0 mph8.0 kmh 30.11 in1019.6 mb - 0.00 in0.0 mm 0.00 in0.0 mm
02:10 PM 63.7°F17.6°C 41.3°F5.2°C 44% 6.0 mph NE9.7 kmh NE 11.0 mph17.7 kmh 30.11 in1019.6 mb - 0.00 in0.0 mm 0.00 in0.0 mm
02:20 PM 63.4°F17.4°C 39.9°F4.4°C 42% 4.8 mph NNE7.7 kmh NNE 9.0 mph14.5 kmh 30.11 in1019.6 mb - 0.00 in0.0 mm 0.00 in0.0 mm
02:30 PM 63.3°F17.4°C 39.2°F4.0°C 41% 2.8 mph N4.5 kmh N 5.0 mph8.0 kmh 30.10 in1019.3 mb - 0.00 in0.0 mm 0.00 in0.0 mm
02:40 PM 63.5°F17.5°C 39.9°F4.4°C 42% 3.1 mph E5.0 kmh E 4.0 mph6.4 kmh 30.10 in1019.3 mb - 0.00 in0.0 mm 0.00 in0.0 mm
02:50 PM 64.1°F17.8°C 39.3°F4.1°C 40% 3.0 mph SE4.8 kmh SE 7.0 mph11.3 kmh 30.10 in1019.3 mb - 0.00 in0.0 mm 0.00 in0.0 mm
03:00 PM 64.2°F17.9°C 39.4°F4.1°C 40% 3.2 mph E5.1 kmh E 7.0 mph11.3 kmh 30.09 in1019.0 mb - 0.00 in0.0 mm 0.00 in0.0 mm
03:10 PM 64.4°F18.0°C 38.9°F3.8°C 39% 4.4 mph SE7.1 kmh SE 7.0 mph11.3 kmh 30.09 in1019.0 mb - 0.00 in0.0 mm 0.00 in0.0 mm
03:20 PM 64.4°F18.0°C 40.8°F4.9°C 42% 2.7 mph SE4.3 kmh SE 6.0 mph9.7 kmh 30.08 in1018.6 mb - 0.00 in0.0 mm 0.00 in0.0 mm
03:30 PM 65.1°F18.4°C 39.5°F4.2°C 39% 4.0 mph SE6.4 kmh SE 9.0 mph14.5 kmh 30.08 in1018.6 mb - 0.00 in0.0 mm 0.00 in0.0 mm
03:40 PM 65.5°F18.6°C 38.6°F3.7°C 37% 4.9 mph E7.9 kmh E 10.0 mph16.1 kmh 30.08 in1018.6 mb - 0.00 in0.0 mm 0.00 in0.0 mm
03:50 PM 65.8°F18.8°C 39.5°F4.2°C 38% 5.9 mph SE9.5 kmh SE 9.0 mph14.5 kmh 30.07 in1018.3 mb - 0.00 in0.0 mm 0.00 in0.0 mm
04:00 PM 66.4°F19.1°C 40.0°F4.4°C 38% 4.3 mph N6.9 kmh N 10.0 mph16.1 kmh 30.07 in1018.3 mb - 0.00 in0.0 mm 0.00 in0.0 mm
04:10 PM 66.7°F19.3°C 38.9°F3.8°C 36% 3.1 mph SE5.0 kmh SE 6.0 mph9.7 kmh 30.07 in1018.3 mb - 0.00 in0.0 mm 0.00 in0.0 mm
04:20 PM 66.4°F19.1°C 39.3°F4.1°C 37% 4.6 mph NNW7.4 kmh NNW 5.0 mph8.0 kmh 30.06 in1017.9 mb - 0.00 in0.0 mm 0.00 in0.0 mm
04:30 PM 67.1°F19.5°C 39.9°F4.4°C 37% 4.1 mph E6.6 kmh E 11.0 mph17.7 kmh 30.06 in1017.9 mb - 0.00 in0.0 mm 0.00 in0.0 mm
04:40 PM 66.9°F19.4°C 39.8°F4.3°C 37% 3.7 mph NNE6.0 kmh NNE 10.0 mph16.1 kmh 30.06 in1017.9 mb - 0.00 in0.0 mm 0.00 in0.0 mm
04:50 PM 66.9°F19.4°C 39.1°F3.9°C 36% 1.9 mph NE3.1 kmh NE 8.0 mph12.9 kmh 30.06 in1017.9 mb - 0.00 in0.0 mm 0.00 in0.0 mm
05:00 PM 67.0°F19.4°C 39.1°F3.9°C 36% 7.0 mph SE11.3 kmh SE 13.0 mph20.9 kmh 30.06 in1017.9 mb - 0.00 in0.0 mm 0.00 in0.0 mm
05:10 PM 67.0°F19.4°C 39.1°F3.9°C 36% 4.7 mph NE7.6 kmh NE 7.0 mph11.3 kmh 30.06 in1017.9 mb - 0.00 in0.0 mm 0.00 in0.0 mm
05:20 PM 66.7°F19.3°C 37.4°F3.0°C 34% 3.5 mph NNE5.6 kmh NNE 8.0 mph12.9 kmh 30.06 in1017.9 mb - 0.00 in0.0 mm 0.00 in0.0 mm
05:30 PM 67.0°F19.4°C 39.1°F3.9°C 36% 2.5 mph E4.0 kmh E 5.0 mph8.0 kmh 30.06 in1017.9 mb - 0.00 in0.0 mm 0.00 in0.0 mm
05:40 PM 66.8°F19.3°C 36.8°F2.7°C 33% 5.5 mph NE8.9 kmh NE 8.0 mph12.9 kmh 30.06 in1017.9 mb - 0.00 in0.0 mm 0.00 in0.0 mm
05:50 PM 66.9°F19.4°C 37.6°F3.1°C 34% 4.0 mph N6.4 kmh N 9.0 mph14.5 kmh 30.06 in1017.9 mb - 0.00 in0.0 mm 0.00 in0.0 mm
06:00 PM 66.4°F19.1°C 36.4°F2.4°C 33% 5.0 mph NNE8.0 kmh NNE 7.0 mph11.3 kmh 30.06 in1017.9 mb - 0.00 in0.0 mm 0.00 in0.0 mm
06:10 PM 66.3°F19.1°C 36.3°F2.4°C 33% 3.5 mph NE5.6 kmh NE 7.0 mph11.3 kmh 30.06 in1017.9 mb - 0.00 in0.0 mm 0.00 in0.0 mm
06:20 PM 65.9°F18.8°C 36.0°F2.2°C 33% 4.7 mph E7.6 kmh E 12.0 mph19.3 kmh 30.06 in1017.9 mb - 0.00 in0.0 mm 0.00 in0.0 mm
06:30 PM 65.8°F18.8°C 36.6°F2.6°C 34% 4.4 mph NE7.1 kmh NE 11.0 mph17.7 kmh 30.06 in1017.9 mb - 0.00 in0.0 mm 0.00 in0.0 mm
06:40 PM 65.7°F18.7°C 36.6°F2.6°C 34% 3.5 mph E5.6 kmh E 4.0 mph6.4 kmh 30.06 in1017.9 mb - 0.00 in0.0 mm 0.00 in0.0 mm
06:50 PM 65.6°F18.7°C 36.5°F2.5°C 34% 3.8 mph ENE6.1 kmh ENE 8.0 mph12.9 kmh 30.06 in1017.9 mb - 0.00 in0.0 mm 0.00 in0.0 mm
07:00 PM 65.3°F18.5°C 37.6°F3.1°C 36% 1.8 mph NE2.9 kmh NE 4.0 mph6.4 kmh 30.06 in1017.9 mb - 0.00 in0.0 mm 0.00 in0.0 mm
07:10 PM 65.1°F18.4°C 36.8°F2.7°C 35% 2.9 mph NE4.7 kmh NE 5.0 mph8.0 kmh 30.06 in1017.9 mb - 0.00 in0.0 mm 0.00 in0.0 mm
07:20 PM 64.4°F18.0°C 36.1°F2.3°C 35% 1.3 mph NE2.1 kmh NE 2.0 mph3.2 kmh 30.07 in1018.3 mb - 0.00 in0.0 mm 0.00 in0.0 mm
07:30 PM 64.0°F17.8°C 36.5°F2.5°C 36% 1.5 mph NE2.4 kmh NE 3.0 mph4.8 kmh 30.07 in1018.3 mb - 0.00 in0.0 mm 0.00 in0.0 mm
07:40 PM 63.4°F17.4°C 36.6°F2.6°C 37% 1.4 mph E2.3 kmh E 2.0 mph3.2 kmh 30.07 in1018.3 mb - 0.00 in0.0 mm 0.00 in0.0 mm
07:50 PM 63.0°F17.2°C 36.3°F2.4°C 37% 1.7 mph N2.7 kmh N 3.0 mph4.8 kmh 30.08 in1018.6 mb - 0.00 in0.0 mm 0.00 in0.0 mm
08:00 PM 62.4°F16.9°C 36.5°F2.5°C 38% Calm Calm -- 30.08 in1018.6 mb - 0.00 in0.0 mm 0.00 in0.0 mm
08:10 PM 61.5°F16.4°C 36.3°F2.4°C 39% 1.1 mph NE1.8 kmh NE 1.0 mph1.6 kmh 30.08 in1018.6 mb - 0.00 in0.0 mm 0.00 in0.0 mm
08:20 PM 60.9°F16.1°C 36.4°F2.4°C 40% 0.7 mph NNE1.1 kmh NNE -- 30.08 in1018.6 mb - 0.00 in0.0 mm 0.00 in0.0 mm
08:30 PM 59.9°F15.5°C 36.8°F2.7°C 42% Calm Calm -- 30.09 in1019.0 mb - 0.00 in0.0 mm 0.00 in0.0 mm
08:40 PM 58.3°F14.6°C 37.6°F3.1°C 46% Calm Calm -- 30.09 in1019.0 mb - 0.00 in0.0 mm 0.00 in0.0 mm
08:50 PM 56.8°F13.8°C 37.8°F3.2°C 49% Calm Calm -- 30.09 in1019.0 mb - 0.00 in0.0 mm 0.00 in0.0 mm
09:00 PM 55.2°F12.9°C 37.9°F3.3°C 52% Calm Calm -- 30.09 in1019.0 mb - 0.00 in0.0 mm 0.00 in0.0 mm
09:10 PM 53.9°F12.2°C 39.0°F3.9°C 57% Calm Calm -- 30.09 in1019.0 mb - 0.00 in0.0 mm 0.00 in0.0 mm
09:20 PM 52.8°F11.6°C 39.3°F4.1°C 60% Calm Calm -- 30.10 in1019.3 mb - 0.00 in0.0 mm 0.00 in0.0 mm
09:30 PM 51.7°F10.9°C 39.1°F3.9°C 62% Calm Calm -- 30.11 in1019.6 mb - 0.00 in0.0 mm 0.00 in0.0 mm
09:40 PM 50.6°F10.3°C 39.6°F4.2°C 66% Calm Calm -- 30.11 in1019.6 mb - 0.00 in0.0 mm 0.00 in0.0 mm
09:50 PM 50.0°F10.0°C 39.5°F4.2°C 67% Calm Calm -- 30.12 in1020.0 mb - 0.00 in0.0 mm 0.00 in0.0 mm
10:00 PM 49.2°F9.6°C 39.8°F4.3°C 70% Calm Calm -- 30.12 in1020.0 mb - 0.00 in0.0 mm 0.00 in0.0 mm
10:10 PM 48.5°F9.2°C 39.6°F4.2°C 71% Calm Calm -- 30.12 in1020.0 mb - 0.00 in0.0 mm 0.00 in0.0 mm
10:20 PM 48.1°F8.9°C 40.2°F4.6°C 74% Calm Calm -- 30.12 in1020.0 mb - 0.00 in0.0 mm 0.00 in0.0 mm
10:30 PM 47.3°F8.5°C 39.8°F4.3°C 75% Calm Calm -- 30.13 in1020.3 mb - 0.00 in0.0 mm 0.00 in0.0 mm
10:40 PM 46.7°F8.2°C 39.5°F4.2°C 76% Calm Calm -- 30.13 in1020.3 mb - 0.00 in0.0 mm 0.00 in0.0 mm
10:50 PM 46.6°F8.1°C 40.4°F4.7°C 79% Calm Calm -- 30.13 in1020.3 mb - 0.00 in0.0 mm 0.00 in0.0 mm
11:00 PM 46.2°F7.9°C 40.1°F4.5°C 79% Calm Calm -- 30.13 in1020.3 mb - 0.00 in0.0 mm 0.00 in0.0 mm
11:10 PM 45.5°F7.5°C 39.7°F4.3°C 80% Calm Calm -- 30.12 in1020.0 mb - 0.00 in0.0 mm 0.00 in0.0 mm
11:20 PM 45.3°F7.4°C 40.4°F4.7°C 83% Calm Calm -- 30.12 in1020.0 mb - 0.00 in0.0 mm 0.00 in0.0 mm
11:30 PM 45.2°F7.3°C 40.0°F4.4°C 82% Calm Calm -- 30.13 in1020.3 mb - 0.00 in0.0 mm 0.00 in0.0 mm
11:40 PM 44.7°F7.1°C 40.2°F4.6°C 84% Calm Calm -- 30.13 in1020.3 mb - 0.00 in0.0 mm 0.00 in0.0 mm
11:50 PM 44.5°F6.9°C 40.6°F4.8°C 86% Calm Calm -- 30.14 in1020.7 mb - 0.00 in0.0 mm 0.00 in0.0 mm